Overseas Milos — V7WR8 — position and weather

sailwx.info

Track history (hours):
 
Tides and Currents Weather Stations Pressure Air Temp Water Temp Dewpoint Dewpoint Depression Visibility Wind Speed Wind Dir Waves Ship Positions

Overseas Milos

Last reported at 2015-Aug-27 22:32 UTC. Time now 2015-Sep-03 23:33 UTC.
Position N 40°06' W 069°29'.

Length 183 m; draft 11.2 m.

Type: Tanker. MMSI: 538004376.

Date/timePositionNaut miles runAvg speedWind from/ knotsBaromVisibWave heightAir tempDewpointWater temp
2015-Aug-27 22:32N 40°06' W 069°29'1912.8
2015-Aug-27 21:04N 40°07' W 069°53'812.7
2015-Aug-27 20:25N 40°08' W 070°04'3713.1
2015-Aug-27 17:33N 40°10' W 070°53'1413.1
2015-Aug-27 16:29N 40°10' W 071°11'1212.5
2015-Aug-27 15:33N 40°10' W 071°27'1212.3
2015-Aug-27 14:33N 40°10' W 071°43'1312.4
2015-Aug-27 13:32N 40°11' W 071°59'1212.4
2015-Aug-27 12:33N 40°13' W 072°15'1212.4
2015-Aug-27 11:33N 40°15' W 072°31'1212.1
2015-Aug-27 10:32N 40°18' W 072°47'1212.0
2015-Aug-27 09:33N 40°20' W 073°02'1212.1
2015-Aug-27 08:33N 40°22' W 073°18'1212.0
2015-Aug-27 07:32N 40°25' W 073°33'1211.9
2015-Aug-27 06:33N 40°27' W 073°48'1111.3
2015-Aug-27 05:33N 40°32' W 074°01'7 7.0
2015-Aug-27 04:33N 40°39' W 074°04'1 0.6
2015-Aug-27 03:32N 40°39' W 074°05'0 0.0
2015-Aug-27 02:32N 40°39' W 074°05'0 0.0
2015-Aug-27 01:32N 40°39' W 074°05'0 0.0
2015-Aug-27 00:29N 40°39' W 074°05'0 0.0
2015-Aug-26 23:32N 40°39' W 074°05'0 0.0
2015-Aug-26 22:32N 40°39' W 074°05'0 0.0
2015-Aug-26 21:29N 40°39' W 074°05'0 0.0
2015-Aug-26 19:17N 40°39' W 074°05'0 0.0
2015-Aug-26 18:17N 40°39' W 074°05'0 0.0
2015-Aug-26 17:08N 40°39' W 074°05'0 0.0
2015-Aug-26 15:29N 40°39' W 074°05'0 0.0
2015-Aug-26 02:05N 40°39' W 074°05'0 0.0
2015-Aug-25 18:32N 40°39' W 074°05'0 0.0
2015-Aug-25 17:32N 40°39' W 074°05'0 0.0
2015-Aug-25 16:20N 40°39' W 074°05'0 0.0
2015-Aug-25 15:29N 40°39' W 074°05'0 0.0
2015-Aug-25 14:32N 40°39' W 074°05'0 0.0
2015-Aug-25 13:32N 40°39' W 074°05'0 0.0
2015-Aug-25 12:32N 40°39' W 074°05'0 0.0
2015-Aug-25 11:26N 40°39' W 074°05'0 0.0
2015-Aug-25 10:20N 40°39' W 074°05'0 0.0
2015-Aug-25 09:32N 40°39' W 074°05'0 0.0
2015-Aug-25 08:32N 40°39' W 074°05'0 0.0
2015-Aug-25 07:20N 40°39' W 074°05'0 0.0
2015-Aug-25 06:32N 40°39' W 074°05'0 0.0
2015-Aug-25 05:32N 40°39' W 074°05'0 0.0
2015-Aug-25 04:32N 40°39' W 074°05'0 0.0
2015-Aug-25 03:32N 40°39' W 074°05'0 0.0
2015-Aug-25 02:32N 40°39' W 074°05'0 0.0
2015-Aug-25 01:32N 40°39' W 074°05'0 0.0
2015-Aug-25 00:32N 40°39' W 074°05'0 0.0
2015-Aug-24 23:32N 40°39' W 074°05'0 0.0
2015-Aug-24 22:26N 40°39' W 074°05'0 0.0
2015-Aug-24 21:32N 40°39' W 074°05'0 0.0
2015-Aug-24 20:29N 40°39' W 074°05'0 0.0
2015-Aug-24 19:32N 40°39' W 074°05'0 0.0
2015-Aug-24 18:29N 40°39' W 074°05'0 0.0
2015-Aug-24 15:26N 40°39' W 074°05'0 0.0
2015-Aug-24 14:29N 40°39' W 074°05'0 0.0
2015-Aug-24 13:20N 40°39' W 074°05'0 0.0
2015-Aug-24 11:32N 40°39' W 074°05'0 0.0
2015-Aug-24 10:26N 40°39' W 074°05'0 0.0
2015-Aug-24 09:32N 40°39' W 074°05'0 0.0
2015-Aug-24 08:32N 40°39' W 074°05'0 0.0
2015-Aug-24 07:24N 40°39' W 074°05'2 2.2
2015-Aug-24 06:33N 40°38' W 074°03'7 6.9
2015-Aug-24 05:33N 40°31' W 074°00'10 9.7
2015-Aug-24 04:33N 40°27' W 073°49'8 8.5
2015-Aug-24 03:33N 40°22' W 073°40'1211.5
2015-Aug-24 02:33N 40°15' W 073°28'1211.8
2015-Aug-24 01:33N 40°09' W 073°15'1211.8
2015-Aug-24 00:33N 40°04' W 073°01'1211.5
2015-Aug-23 23:33N 40°05' W 072°46'1211.9
2015-Aug-23 22:33N 40°03' W 072°31'1312.7
2015-Aug-23 21:34N 40°01' W 072°14'1413.6
2015-Aug-23 20:33N 39°59' W 071°57'1413.5
2015-Aug-23 19:33N 39°57' W 071°39'1313.4
2015-Aug-23 18:33N 39°55' W 071°22'1313.3
2015-Aug-23 17:33N 39°53' W 071°05'1312.8
2015-Aug-23 16:33N 39°52' W 070°48'7 7.4
2015-Aug-23 15:33N 39°53' W 070°39'8 7.8
2015-Aug-23 14:33N 39°51' W 070°29'1111.4
2015-Aug-23 13:33N 39°52' W 070°14'1111.3
2015-Aug-23 12:33N 39°53' W 069°59'1211.4
2015-Aug-23 11:29N 39°54' W 069°43'1111.9
2015-Aug-23 10:33N 39°54' W 069°29'1312.5
2015-Aug-23 09:32N 39°55' W 069°12'1313.1
2015-Aug-23 08:33N 39°55' W 068°56'1313.0
2015-Aug-23 07:31N 39°56' W 068°38'1312.9
2015-Aug-23 06:31N 39°56' W 068°21'1412.8
2015-Aug-23 05:24N 39°57' W 068°03'  
Track history (hours):
 
Tides and Currents Weather Stations Pressure Air Temp Water Temp Dewpoint Dewpoint Depression Visibility Wind Speed Wind Dir Waves Ship Positions

Overseas Milos

Last reported at 2015-Aug-27 22:32 UTC. Time now 2015-Sep-03 23:33 UTC.
Position N 40°06' W 069°29'.

Length 183 m; draft 11.2 m.

Type: Tanker. MMSI: 538004376.

Date/timePositionNaut miles runAvg speedWind from/ knotsBaromVisibWave heightAir tempDewpointWater temp
2015-Aug-27 22:32N 40°06' W 069°29'1912.8
2015-Aug-27 21:04N 40°07' W 069°53'812.7
2015-Aug-27 20:25N 40°08' W 070°04'3713.1
2015-Aug-27 17:33N 40°10' W 070°53'1413.1
2015-Aug-27 16:29N 40°10' W 071°11'1212.5
2015-Aug-27 15:33N 40°10' W 071°27'1212.3
2015-Aug-27 14:33N 40°10' W 071°43'1312.4
2015-Aug-27 13:32N 40°11' W 071°59'1212.4
2015-Aug-27 12:33N 40°13' W 072°15'1212.4
2015-Aug-27 11:33N 40°15' W 072°31'1212.1
2015-Aug-27 10:32N 40°18' W 072°47'1212.0
2015-Aug-27 09:33N 40°20' W 073°02'1212.1
2015-Aug-27 08:33N 40°22' W 073°18'1212.0
2015-Aug-27 07:32N 40°25' W 073°33'1211.9
2015-Aug-27 06:33N 40°27' W 073°48'1111.3
2015-Aug-27 05:33N 40°32' W 074°01'7 7.0
2015-Aug-27 04:33N 40°39' W 074°04'1 0.6
2015-Aug-27 03:32N 40°39' W 074°05'0 0.0
2015-Aug-27 02:32N 40°39' W 074°05'0 0.0
2015-Aug-27 01:32N 40°39' W 074°05'0 0.0
2015-Aug-27 00:29N 40°39' W 074°05'0 0.0
2015-Aug-26 23:32N 40°39' W 074°05'0 0.0
2015-Aug-26 22:32N 40°39' W 074°05'0 0.0
2015-Aug-26 21:29N 40°39' W 074°05'0 0.0
2015-Aug-26 19:17N 40°39' W 074°05'0 0.0
2015-Aug-26 18:17N 40°39' W 074°05'0 0.0
2015-Aug-26 17:08N 40°39' W 074°05'0 0.0
2015-Aug-26 15:29N 40°39' W 074°05'0 0.0
2015-Aug-26 02:05N 40°39' W 074°05'0 0.0
2015-Aug-25 18:32N 40°39' W 074°05'0 0.0
2015-Aug-25 17:32N 40°39' W 074°05'0 0.0
2015-Aug-25 16:20N 40°39' W 074°05'0 0.0
2015-Aug-25 15:29N 40°39' W 074°05'0 0.0
2015-Aug-25 14:32N 40°39' W 074°05'0 0.0
2015-Aug-25 13:32N 40°39' W 074°05'0 0.0
2015-Aug-25 12:32N 40°39' W 074°05'0 0.0
2015-Aug-25 11:26N 40°39' W 074°05'0 0.0
2015-Aug-25 10:20N 40°39' W 074°05'0 0.0
2015-Aug-25 09:32N 40°39' W 074°05'0 0.0
2015-Aug-25 08:32N 40°39' W 074°05'0 0.0
2015-Aug-25 07:20N 40°39' W 074°05'0 0.0
2015-Aug-25 06:32N 40°39' W 074°05'0 0.0
2015-Aug-25 05:32N 40°39' W 074°05'0 0.0
2015-Aug-25 04:32N 40°39' W 074°05'0 0.0
2015-Aug-25 03:32N 40°39' W 074°05'0 0.0
2015-Aug-25 02:32N 40°39' W 074°05'0 0.0
2015-Aug-25 01:32N 40°39' W 074°05'0 0.0
2015-Aug-25 00:32N 40°39' W 074°05'0 0.0
2015-Aug-24 23:32N 40°39' W 074°05'0 0.0
2015-Aug-24 22:26N 40°39' W 074°05'0 0.0
2015-Aug-24 21:32N 40°39' W 074°05'0 0.0
2015-Aug-24 20:29N 40°39' W 074°05'0 0.0
2015-Aug-24 19:32N 40°39' W 074°05'0 0.0
2015-Aug-24 18:29N 40°39' W 074°05'0 0.0
2015-Aug-24 15:26N 40°39' W 074°05'0 0.0
2015-Aug-24 14:29N 40°39' W 074°05'0 0.0
2015-Aug-24 13:20N 40°39' W 074°05'0 0.0
2015-Aug-24 11:32N 40°39' W 074°05'0 0.0
2015-Aug-24 10:26N 40°39' W 074°05'0 0.0
2015-Aug-24 09:32N 40°39' W 074°05'0 0.0
2015-Aug-24 08:32N 40°39' W 074°05'0 0.0
2015-Aug-24 07:24N 40°39' W 074°05'2 2.2
2015-Aug-24 06:33N 40°38' W 074°03'7 6.9
2015-Aug-24 05:33N 40°31' W 074°00'10 9.7
2015-Aug-24 04:33N 40°27' W 073°49'8 8.5
2015-Aug-24 03:33N 40°22' W 073°40'1211.5
2015-Aug-24 02:33N 40°15' W 073°28'1211.8
2015-Aug-24 01:33N 40°09' W 073°15'1211.8
2015-Aug-24 00:33N 40°04' W 073°01'1211.5
2015-Aug-23 23:33N 40°05' W 072°46'1211.9
2015-Aug-23 22:33N 40°03' W 072°31'1312.7
2015-Aug-23 21:34N 40°01' W 072°14'1413.6
2015-Aug-23 20:33N 39°59' W 071°57'1413.5
2015-Aug-23 19:33N 39°57' W 071°39'1313.4
2015-Aug-23 18:33N 39°55' W 071°22'1313.3
2015-Aug-23 17:33N 39°53' W 071°05'1312.8
2015-Aug-23 16:33N 39°52' W 070°48'7 7.4
2015-Aug-23 15:33N 39°53' W 070°39'8 7.8
2015-Aug-23 14:33N 39°51' W 070°29'1111.4
2015-Aug-23 13:33N 39°52' W 070°14'1111.3
2015-Aug-23 12:33N 39°53' W 069°59'1211.4
2015-Aug-23 11:29N 39°54' W 069°43'1111.9
2015-Aug-23 10:33N 39°54' W 069°29'1312.5
2015-Aug-23 09:32N 39°55' W 069°12'1313.1
2015-Aug-23 08:33N 39°55' W 068°56'1313.0
2015-Aug-23 07:31N 39°56' W 068°38'1312.9
2015-Aug-23 06:31N 39°56' W 068°21'1412.8
2015-Aug-23 05:24N 39°57' W 068°03'  

Dump ship's entire track history